createdAt,value
2018-10-19T00:00:25.214Z,44.27
2018-10-19T00:02:54.279Z,46.80
2018-10-19T00:05:22.876Z,45.40
2018-10-19T00:07:51.504Z,47.40
2018-10-19T00:10:20.187Z,44.97
2018-10-19T00:12:48.826Z,47.30
2018-10-19T00:15:17.572Z,47.37
2018-10-19T00:17:46.060Z,47.97
2018-10-19T00:20:14.714Z,45.40
2018-10-19T00:22:43.312Z,47.97
2018-10-19T00:25:11.928Z,47.50
2018-10-19T00:27:40.535Z,49.63
2018-10-19T00:30:09.858Z,47.80
2018-10-19T00:32:38.473Z,47.77
2018-10-19T00:35:07.751Z,48.37
2018-10-19T00:37:36.361Z,48.20
2018-10-19T00:40:05.544Z,49.70
2018-10-19T00:42:34.177Z,49.87
2018-10-19T00:45:02.881Z,47.17
2018-10-19T00:47:31.697Z,47.47
2018-10-19T00:50:00.300Z,48.87
2018-10-19T00:52:28.905Z,46.87
2018-10-19T00:54:57.495Z,49.57
2018-10-19T00:57:26.120Z,49.97
2018-10-19T00:59:54.701Z,46.90
2018-10-19T01:02:23.312Z,48.20
2018-10-19T01:04:51.921Z,49.20
2018-10-19T01:07:20.561Z,47.83
2018-10-19T01:09:49.153Z,49.10
2018-10-19T01:12:17.745Z,48.33
2018-10-19T01:14:46.356Z,48.83
2018-10-19T01:17:15.053Z,51.87
2018-10-19T01:19:43.617Z,49.37
2018-10-19T01:22:12.223Z,50.13
2018-10-19T01:24:40.826Z,54.43
2018-10-19T01:27:09.510Z,53.43
2018-10-19T01:29:38.117Z,51.53
2018-10-19T01:32:06.737Z,53.53
2018-10-19T01:34:35.352Z,53.93
2018-10-19T01:37:05.153Z,55.10
2018-10-19T01:39:33.741Z,54.83
2018-10-19T01:42:02.366Z,56.30
2018-10-19T01:44:32.411Z,55.27
2018-10-19T01:47:01.082Z,55.17
2018-10-19T01:49:29.697Z,55.67
2018-10-19T01:51:58.289Z,54.30
2018-10-19T01:54:26.892Z,56.70
2018-10-19T01:56:55.514Z,57.83
2018-10-19T01:59:24.117Z,57.47
2018-10-19T02:01:52.765Z,58.10
2018-10-19T02:04:21.378Z,55.67
2018-10-19T02:06:49.982Z,57.50
2018-10-19T02:09:19.222Z,57.67
2018-10-19T02:11:47.852Z,56.23
2018-10-19T02:14:16.460Z,58.97
2018-10-19T02:16:45.105Z,58.43
2018-10-19T02:19:13.693Z,59.23
2018-10-19T02:21:42.317Z,57.87
2018-10-19T02:24:10.929Z,59.90
2018-10-19T02:26:39.585Z,67.57
2018-10-19T02:29:08.316Z,63.73
2018-10-19T02:31:36.900Z,65.00
2018-10-19T02:34:05.961Z,64.20
2018-10-19T02:36:34.574Z,64.03
2018-10-19T02:39:03.333Z,65.83
2018-10-19T02:41:31.948Z,65.17
2018-10-19T02:44:00.529Z,61.80
2018-10-19T02:46:29.209Z,61.67
2018-10-19T02:48:57.802Z,62.83
2018-10-19T02:51:26.402Z,62.53
2018-10-19T02:53:55.010Z,66.47
2018-10-19T02:56:23.610Z,67.50
2018-10-19T02:58:52.266Z,65.83
2018-10-19T03:01:20.897Z,68.90
2018-10-19T03:03:49.537Z,64.97
2018-10-19T03:06:18.173Z,65.23
2018-10-19T03:08:46.761Z,67.60
2018-10-19T03:11:15.419Z,64.27
2018-10-19T03:13:43.989Z,66.00
2018-10-19T03:16:12.605Z,68.17
2018-10-19T03:18:41.196Z,69.47
2018-10-19T03:21:10.097Z,71.07
2018-10-19T03:23:38.973Z,69.87
2018-10-19T03:26:08.453Z,71.40
2018-10-19T03:28:37.045Z,70.33
2018-10-19T03:31:06.019Z,68.03
2018-10-19T03:33:34.650Z,66.30
2018-10-19T03:36:03.268Z,70.93
2018-10-19T03:38:31.869Z,67.77
2018-10-19T03:41:00.506Z,70.70
2018-10-19T03:43:29.092Z,68.23
2018-10-19T03:45:57.717Z,67.10
2018-10-19T03:48:26.304Z,69.60
2018-10-19T03:50:54.966Z,71.83
2018-10-19T03:53:23.509Z,69.27
2018-10-19T03:55:52.146Z,70.63
2018-10-19T03:58:20.761Z,69.13
2018-10-19T04:00:49.388Z,74.53
2018-10-19T04:03:18.043Z,68.43
2018-10-19T04:05:46.603Z,71.97
2018-10-19T04:08:15.185Z,73.83
2018-10-19T04:10:43.828Z,73.20
2018-10-19T04:13:12.445Z,74.47
2018-10-19T04:15:41.049Z,76.80
2018-10-19T04:18:09.659Z,76.13
2018-10-19T04:20:38.269Z,76.70
2018-10-19T04:23:08.746Z,73.70
2018-10-19T04:25:38.429Z,74.17
2018-10-19T04:28:07.061Z,78.87
2018-10-19T04:30:36.882Z,73.23
2018-10-19T04:33:06.059Z,77.60
2018-10-19T04:35:34.787Z,77.70
2018-10-19T04:38:03.681Z,78.63
2018-10-19T04:40:32.269Z,77.83
2018-10-19T04:43:01.009Z,76.17
2018-10-19T04:45:29.604Z,76.43
2018-10-19T04:47:58.215Z,76.20
2018-10-19T04:50:26.859Z,76.17
2018-10-19T04:52:55.471Z,74.53
2018-10-19T04:55:24.072Z,78.30
2018-10-19T04:57:52.726Z,77.53
2018-10-19T05:00:21.761Z,75.07
2018-10-19T05:02:51.299Z,76.43
2018-10-19T05:05:20.079Z,76.73
2018-10-19T05:07:48.646Z,73.80
2018-10-19T05:10:17.274Z,76.20
2018-10-19T05:12:45.922Z,75.50
2018-10-19T05:15:14.534Z,79.07
2018-10-19T05:17:43.172Z,82.33
2018-10-19T05:20:12.612Z,76.87
2018-10-19T05:22:41.196Z,76.37
2018-10-19T05:25:12.148Z,72.63
2018-10-19T05:27:40.760Z,77.90
2018-10-19T05:30:11.213Z,78.33
2018-10-19T05:32:40.370Z,76.83
2018-10-19T05:35:09.006Z,76.10
2018-10-19T05:37:38.700Z,82.23
2018-10-19T05:40:08.425Z,77.83
2018-10-19T05:42:37.072Z,73.23
2018-10-19T05:45:08.269Z,79.40
2018-10-19T05:47:36.934Z,72.80
2018-10-19T05:50:06.468Z,70.67
2018-10-19T05:52:35.001Z,75.63
2018-10-19T05:55:03.665Z,76.43
2018-10-19T05:57:32.269Z,74.60
2018-10-19T06:00:00.876Z,77.27
2018-10-19T06:02:29.978Z,82.33
2018-10-19T06:04:58.540Z,79.53
2018-10-19T06:07:27.140Z,77.50
2018-10-19T06:09:55.736Z,76.50
2018-10-19T06:12:24.321Z,75.13
2018-10-19T06:14:52.924Z,77.90
2018-10-19T06:17:21.565Z,77.30
2018-10-19T06:19:50.206Z,75.60
2018-10-19T06:22:18.832Z,78.07
2018-10-19T06:24:47.481Z,77.83
2018-10-19T06:27:16.138Z,74.07
2018-10-19T06:29:44.765Z,73.67
2018-10-19T06:32:13.498Z,70.13
2018-10-19T06:34:42.029Z,69.03
2018-10-19T06:37:10.621Z,75.30
2018-10-19T06:39:39.229Z,73.57
2018-10-19T06:42:07.868Z,74.93
2018-10-19T06:44:36.475Z,76.97
2018-10-19T06:47:05.331Z,79.37
2018-10-19T06:49:33.888Z,76.57
2018-10-19T06:52:02.540Z,78.17
2018-10-19T06:54:31.213Z,83.63
2018-10-19T06:56:59.833Z,78.77
2018-10-19T06:59:28.515Z,96.93
2018-10-19T07:01:57.105Z,88.03
2018-10-19T07:04:25.700Z,84.43
2018-10-19T07:06:54.325Z,83.90
2018-10-19T07:09:22.941Z,81.17
2018-10-19T07:11:51.548Z,80.50
2018-10-19T07:14:20.149Z,82.00
2018-10-19T07:16:48.767Z,88.00
2018-10-19T07:19:17.376Z,85.30
2018-10-19T07:21:46.063Z,83.33
2018-10-19T07:24:14.645Z,80.77
2018-10-19T07:26:43.273Z,82.20
2018-10-19T07:29:11.960Z,81.63
2018-10-19T07:31:40.532Z,80.47
2018-10-19T07:34:09.121Z,78.93
2018-10-19T07:36:37.781Z,81.93
2018-10-19T07:39:07.786Z,79.60
2018-10-19T07:41:36.412Z,80.03
2018-10-19T07:44:05.339Z,82.83
2018-10-19T07:46:33.980Z,80.33
2018-10-19T07:49:02.585Z,77.60
2018-10-19T07:51:31.193Z,82.73
2018-10-19T07:53:59.797Z,78.13
2018-10-19T07:56:28.388Z,79.93
2018-10-19T07:58:57.051Z,83.57
2018-10-19T08:01:25.645Z,77.67
2018-10-19T08:03:54.250Z,79.23
2018-10-19T08:06:22.836Z,85.40
2018-10-19T08:08:51.457Z,83.03
2018-10-19T08:11:20.157Z,79.97
2018-10-19T08:13:48.757Z,81.80
2018-10-19T08:16:17.393Z,81.53
2018-10-19T08:18:46.009Z,81.93
2018-10-19T08:21:14.659Z,82.83
2018-10-19T08:23:43.292Z,81.73
2018-10-19T08:26:11.972Z,85.40
2018-10-19T08:28:40.560Z,84.03
2018-10-19T08:31:09.164Z,80.80
2018-10-19T08:33:37.775Z,83.07
2018-10-19T08:36:06.423Z,79.43
2018-10-19T08:38:35.106Z,82.20
2018-10-19T08:41:03.781Z,84.10
2018-10-19T08:43:32.357Z,79.97
2018-10-19T08:46:06.337Z,81.77
2018-10-19T08:48:35.024Z,81.77
2018-10-19T08:51:03.706Z,84.03
2018-10-19T08:53:32.338Z,78.50
2018-10-19T08:56:00.922Z,80.93
2018-10-19T08:58:29.569Z,85.53
2018-10-19T09:00:58.178Z,81.80
2018-10-19T09:03:26.838Z,81.57
2018-10-19T09:05:55.486Z,82.40
2018-10-19T09:08:24.077Z,82.13
2018-10-19T09:10:52.693Z,80.67
2018-10-19T09:13:21.257Z,85.00
2018-10-19T09:15:49.873Z,81.17
2018-10-19T09:18:18.545Z,80.73
2018-10-19T09:20:47.125Z,81.33
2018-10-19T09:23:15.781Z,84.47
2018-10-19T09:25:44.349Z,80.53
2018-10-19T09:28:13.121Z,80.23
2018-10-19T09:30:41.773Z,81.43
2018-10-19T09:33:10.358Z,82.17
2018-10-19T09:35:39.085Z,85.17
2018-10-19T09:38:07.657Z,82.23
2018-10-19T09:40:36.243Z,83.57
2018-10-19T09:43:04.978Z,83.60
2018-10-19T09:45:33.693Z,81.33
2018-10-19T09:48:02.461Z,77.10
2018-10-19T09:50:31.061Z,75.47
2018-10-19T09:52:59.682Z,80.07
2018-10-19T09:55:28.334Z,77.73
2018-10-19T09:57:56.953Z,80.50
2018-10-19T10:00:30.809Z,76.23
2018-10-19T10:02:59.463Z,78.37
2018-10-19T10:05:28.037Z,78.57
2018-10-19T10:07:56.716Z,80.30
2018-10-19T10:10:25.319Z,79.97
2018-10-19T10:12:53.935Z,76.73
2018-10-19T10:15:22.606Z,80.23
2018-10-19T10:17:51.140Z,78.87
2018-10-19T10:20:19.733Z,80.63
2018-10-19T10:22:48.352Z,78.63
2018-10-19T10:25:17.019Z,80.33
2018-10-19T10:27:45.593Z,76.73
2018-10-19T10:30:14.288Z,77.57
2018-10-19T10:32:42.908Z,80.17
2018-10-19T10:35:11.497Z,78.23
2018-10-19T10:37:40.085Z,78.60
2018-10-19T10:40:08.907Z,80.73
2018-10-19T10:42:37.779Z,77.20
2018-10-19T10:45:06.421Z,78.13
2018-10-19T10:47:35.020Z,74.37
2018-10-19T10:50:03.673Z,78.73
2018-10-19T10:52:32.277Z,81.53
2018-10-19T10:55:00.896Z,78.87
2018-10-19T10:57:29.506Z,79.40
2018-10-19T10:59:58.129Z,75.20
2018-10-19T11:02:26.734Z,76.87
2018-10-19T11:04:55.337Z,74.13
2018-10-19T11:07:24.087Z,75.53
2018-10-19T11:09:52.844Z,77.37
2018-10-19T11:12:21.444Z,75.77
2018-10-19T11:14:50.053Z,78.13
2018-10-19T11:17:18.942Z,74.53
2018-10-19T11:19:47.557Z,78.43
2018-10-19T11:22:16.275Z,76.70
2018-10-19T11:24:44.813Z,76.57
2018-10-19T11:27:13.421Z,78.37
2018-10-19T11:29:42.009Z,78.20
2018-10-19T11:32:10.602Z,77.03
2018-10-19T11:34:39.193Z,72.97
2018-10-19T11:37:07.878Z,71.80
2018-10-19T11:39:40.965Z,67.97
2018-10-19T11:42:09.586Z,67.10
2018-10-19T11:44:38.193Z,70.27
2018-10-19T11:47:06.809Z,66.20
2018-10-19T11:49:35.393Z,69.50
2018-10-19T11:52:04.115Z,74.10
2018-10-19T11:54:32.664Z,71.90
2018-10-19T11:57:01.333Z,74.27
2018-10-19T11:59:29.877Z,75.13
2018-10-19T12:01:58.468Z,74.67
2018-10-19T12:04:27.122Z,74.20
2018-10-19T12:06:55.773Z,70.33
2018-10-19T12:09:24.393Z,69.87
2018-10-19T12:11:52.980Z,70.13
2018-10-19T12:14:21.597Z,69.60
2018-10-19T12:16:50.342Z,71.07
2018-10-19T12:19:18.883Z,66.90
2018-10-19T12:21:47.494Z,67.03
2018-10-19T12:24:16.127Z,64.87
2018-10-19T12:26:44.736Z,65.57
2018-10-19T12:29:13.349Z,62.73
2018-10-19T12:31:41.961Z,66.57
2018-10-19T12:34:10.621Z,67.00
2018-10-19T12:36:39.226Z,62.90
2018-10-19T12:39:09.036Z,62.43
2018-10-19T12:41:37.597Z,62.60
2018-10-19T12:44:06.221Z,62.77
2018-10-19T12:46:48.212Z,62.20
2018-10-19T12:49:18.415Z,58.83
2018-10-19T12:51:47.056Z,57.80
2018-10-19T12:54:15.820Z,58.70
2018-10-19T12:56:44.384Z,60.80
2018-10-19T12:59:13.001Z,62.27
2018-10-19T13:01:41.637Z,56.17
2018-10-19T13:04:10.258Z,53.23
2018-10-19T13:06:38.856Z,55.63
2018-10-19T13:09:11.662Z,56.77
2018-10-19T13:11:40.279Z,57.10
2018-10-19T13:14:08.905Z,52.83
2018-10-19T13:16:37.526Z,49.80
2018-10-19T13:19:06.227Z,49.33
2018-10-19T13:21:34.853Z,56.33
2018-10-19T13:24:03.588Z,55.63
2018-10-19T13:26:32.156Z,56.73
2018-10-19T13:29:00.766Z,59.53
2018-10-19T13:31:29.376Z,59.20
2018-10-19T13:33:58.002Z,56.33
2018-10-19T13:36:26.608Z,58.87
2018-10-19T13:38:55.267Z,59.40
2018-10-19T13:41:23.875Z,59.00
2018-10-19T13:43:52.492Z,60.63
2018-10-19T13:46:21.185Z,63.10
2018-10-19T13:48:49.829Z,59.87
2018-10-19T13:51:19.332Z,59.17
2018-10-19T13:53:47.940Z,56.37
2018-10-19T13:56:16.525Z,58.40
2018-10-19T13:58:45.183Z,56.40
2018-10-19T14:01:13.769Z,57.17
2018-10-19T14:03:42.378Z,56.93
2018-10-19T14:06:10.985Z,57.57
2018-10-19T14:08:39.721Z,60.50
2018-10-19T14:11:08.392Z,57.73
2018-10-19T14:13:36.953Z,56.90
2018-10-19T14:16:05.692Z,58.93
2018-10-19T14:18:34.316Z,59.60
2018-10-19T14:21:03.022Z,62.43
2018-10-19T14:23:31.629Z,62.50
2018-10-19T14:26:00.232Z,60.50
2018-10-19T14:28:28.832Z,62.27
2018-10-19T14:30:57.493Z,58.80
2018-10-19T14:33:26.255Z,58.00
2018-10-19T14:35:54.970Z,60.77
2018-10-19T14:38:23.577Z,60.07
2018-10-19T14:40:52.198Z,62.00
2018-10-19T14:43:20.803Z,60.07
2018-10-19T14:45:49.429Z,58.60
2018-10-19T14:48:18.087Z,61.37
2018-10-19T14:50:46.708Z,59.33
2018-10-19T14:53:15.385Z,60.63
2018-10-19T14:55:44.012Z,59.53
2018-10-19T14:58:12.624Z,57.27
2018-10-19T15:00:41.261Z,57.07
2018-10-19T15:03:09.881Z,58.87
2018-10-19T15:05:38.460Z,57.67
2018-10-19T15:08:07.062Z,58.87
2018-10-19T15:10:35.946Z,58.77
2018-10-19T15:13:04.333Z,57.87
2018-10-19T15:15:32.965Z,57.33
2018-10-19T15:18:01.632Z,57.97
2018-10-19T15:20:30.210Z,54.90
2018-10-19T15:22:58.818Z,55.83
2018-10-19T15:25:27.441Z,53.73
2018-10-19T15:27:56.050Z,56.67
2018-10-19T15:30:24.666Z,54.67
2018-10-19T15:32:53.283Z,53.00
2018-10-19T15:35:21.889Z,54.53
2018-10-19T15:37:50.549Z,54.17
2018-10-19T15:40:19.147Z,55.73
2018-10-19T15:42:47.756Z,56.07
2018-10-19T15:45:17.380Z,56.17
2018-10-19T15:47:45.857Z,56.53
2018-10-19T15:50:14.481Z,56.07
2018-10-19T15:52:43.117Z,55.47
2018-10-19T15:55:11.753Z,57.57
2018-10-19T15:57:40.433Z,57.87
2018-10-19T16:00:09.953Z,55.97
2018-10-19T16:02:38.540Z,57.50
2018-10-19T16:05:07.284Z,56.47
2018-10-19T16:07:35.903Z,54.17
2018-10-19T16:10:04.807Z,53.07
2018-10-19T16:12:33.421Z,57.57
2018-10-19T16:15:02.062Z,57.97
2018-10-19T16:17:30.707Z,57.50
2018-10-19T16:19:59.336Z,56.27
2018-10-19T16:22:27.969Z,57.80
2018-10-19T16:24:56.579Z,55.90
2018-10-19T16:27:25.284Z,59.10
2018-10-19T16:29:53.867Z,57.23
2018-10-19T16:32:22.469Z,54.87
2018-10-19T16:34:51.089Z,56.17
2018-10-19T16:37:19.715Z,54.63
2018-10-19T16:39:48.321Z,56.93
2018-10-19T16:42:17.017Z,55.67
2018-10-19T16:44:45.612Z,57.17
2018-10-19T16:47:14.252Z,53.83
2018-10-19T16:49:42.853Z,53.03
2018-10-19T16:52:11.494Z,54.33
2018-10-19T16:54:40.081Z,55.27
2018-10-19T16:57:08.792Z,55.50
2018-10-19T16:59:37.341Z,55.93
2018-10-19T17:02:06.112Z,56.37
2018-10-19T17:04:34.791Z,62.00
2018-10-19T17:07:03.433Z,56.23
2018-10-19T17:09:32.089Z,59.87
2018-10-19T17:12:00.756Z,60.50
2018-10-19T17:14:29.398Z,54.93
2018-10-19T17:16:57.988Z,54.00
2018-10-19T17:19:26.634Z,98.73
2018-10-19T17:21:55.237Z,56.40
2018-10-19T17:24:23.888Z,53.40
2018-10-19T17:26:52.514Z,53.10
2018-10-19T17:29:21.153Z,54.30
2018-10-19T17:31:49.820Z,55.13
2018-10-19T17:34:18.588Z,55.43
2018-10-19T17:36:47.216Z,53.40
2018-10-19T17:39:15.911Z,65.40
2018-10-19T17:41:44.486Z,59.83
2018-10-19T17:44:13.084Z,56.97
2018-10-19T17:46:41.688Z,59.37
2018-10-19T17:49:10.353Z,58.63
2018-10-19T17:51:38.893Z,59.20
2018-10-19T17:54:07.553Z,58.73
2018-10-19T17:56:36.113Z,57.93
2018-10-19T17:59:04.804Z,57.33
2018-10-19T18:01:33.457Z,66.43
2018-10-19T18:04:02.113Z,62.67
2018-10-19T18:06:30.727Z,60.27
2018-10-19T18:08:59.390Z,64.87
2018-10-19T18:11:28.037Z,63.33
2018-10-19T18:13:56.614Z,71.30
2018-10-19T18:16:25.212Z,63.17
2018-10-19T18:18:53.858Z,58.83
2018-10-19T18:21:22.479Z,59.73
2018-10-19T18:23:51.075Z,61.90
2018-10-19T18:26:19.717Z,62.50
2018-10-19T18:28:48.389Z,59.47
2018-10-19T18:31:16.991Z,63.63
2018-10-19T18:33:45.606Z,62.60
2018-10-19T18:36:14.225Z,72.83
2018-10-19T18:38:42.832Z,67.80
2018-10-19T18:41:11.526Z,64.40
2018-10-19T18:43:40.082Z,60.20
2018-10-19T18:46:08.689Z,58.97
2018-10-19T18:48:37.473Z,59.97
2018-10-19T18:51:06.361Z,58.83
2018-10-19T18:53:41.500Z,62.67
2018-10-19T18:56:10.607Z,61.20
2018-10-19T18:58:39.293Z,59.97
2018-10-19T19:01:07.936Z,64.53
2018-10-19T19:03:36.681Z,60.27
2018-10-19T19:06:05.513Z,64.67
2018-10-19T19:08:34.125Z,57.97
2018-10-19T19:11:02.885Z,64.40
2018-10-19T19:13:32.547Z,61.07
2018-10-19T19:16:01.405Z,86.13
2018-10-19T19:18:30.154Z,69.13
2018-10-19T19:20:58.869Z,70.50
2018-10-19T19:23:27.525Z,67.23
2018-10-19T19:26:12.735Z,68.13
2018-10-19T19:28:41.428Z,68.50
2018-10-19T19:31:10.112Z,69.13
2018-10-19T19:33:44.107Z,67.70
2018-10-19T19:36:12.827Z,69.63
2018-10-19T19:38:41.503Z,69.40
2018-10-19T19:41:15.700Z,71.07
2018-10-19T19:43:44.413Z,69.43
2018-10-19T19:46:13.147Z,68.13
2018-10-19T19:48:47.035Z,66.77
2018-10-19T19:51:15.703Z,74.17
2018-10-19T19:53:44.324Z,77.10
2018-10-19T19:56:13.396Z,81.63
2018-10-19T19:58:42.091Z,75.87
2018-10-19T20:01:10.975Z,74.63
2018-10-19T20:03:39.735Z,80.00
2018-10-19T20:06:08.792Z,74.97
2018-10-19T20:08:37.543Z,78.97
2018-10-19T20:11:06.660Z,78.20
2018-10-19T20:13:35.309Z,77.23
2018-10-19T20:16:04.155Z,79.23
2018-10-19T20:18:32.998Z,80.40
2018-10-19T20:21:01.746Z,81.00
2018-10-19T20:23:30.351Z,73.97
2018-10-19T20:25:59.339Z,76.77
2018-10-19T20:28:28.124Z,77.40
2018-10-19T20:30:57.076Z,77.30
2018-10-19T20:33:26.009Z,75.90
2018-10-19T20:35:54.688Z,72.70
2018-10-19T20:38:23.524Z,69.43
2018-10-19T20:40:52.472Z,73.87
2018-10-19T20:43:21.276Z,73.80
2018-10-19T20:45:49.982Z,70.87
2018-10-19T20:48:18.726Z,79.07
2018-10-19T20:50:47.639Z,75.47
2018-10-19T20:53:16.555Z,76.40
2018-10-19T20:55:45.409Z,74.90
2018-10-19T20:58:14.146Z,73.80
2018-10-19T21:00:42.978Z,72.80
2018-10-19T21:03:11.688Z,73.43
2018-10-19T21:05:40.524Z,74.33
2018-10-19T21:08:09.202Z,75.17
2018-10-19T21:10:38.015Z,75.40
2018-10-19T21:13:06.819Z,74.93
2018-10-19T21:15:35.518Z,75.63
2018-10-19T21:18:04.358Z,73.57
2018-10-19T21:20:33.176Z,72.53
2018-10-19T21:23:02.061Z,70.53
2018-10-19T21:25:30.936Z,70.00
2018-10-19T21:27:59.677Z,68.13
2018-10-19T21:30:28.387Z,68.93
2018-10-19T21:32:57.097Z,72.97
2018-10-19T21:35:25.962Z,73.60
2018-10-19T21:37:54.704Z,71.17
2018-10-19T21:40:23.633Z,74.00
2018-10-19T21:42:52.369Z,70.37
2018-10-19T21:45:21.114Z,74.10
2018-10-19T21:47:49.973Z,73.43
2018-10-19T21:50:21.827Z,75.70
2018-10-19T21:52:51.367Z,78.97
2018-10-19T21:55:19.970Z,74.57
2018-10-19T21:57:48.604Z,74.60
2018-10-19T22:00:17.269Z,72.87
2018-10-19T22:02:45.876Z,75.73
2018-10-19T22:05:14.589Z,76.77
2018-10-19T22:07:43.234Z,76.47
2018-10-19T22:10:11.795Z,74.43
2018-10-19T22:12:40.397Z,73.60
2018-10-19T22:15:09.590Z,73.57
2018-10-19T22:17:38.185Z,76.93
2018-10-19T22:20:07.314Z,71.87
2018-10-19T22:22:35.956Z,74.73
2018-10-19T22:25:05.152Z,73.47
2018-10-19T22:27:33.721Z,72.97
2018-10-19T22:30:02.356Z,70.87
2018-10-19T22:32:30.983Z,71.50
2018-10-19T22:34:59.586Z,74.07
2018-10-19T22:37:28.193Z,78.03
2018-10-19T22:39:56.793Z,70.80
2018-10-19T22:42:25.392Z,70.70
2018-10-19T22:44:53.953Z,73.43
2018-10-19T22:47:22.570Z,69.60
2018-10-19T22:49:51.161Z,68.63
2018-10-19T22:52:19.773Z,65.37
2018-10-19T22:54:48.380Z,68.23
2018-10-19T22:57:16.976Z,68.10
2018-10-19T22:59:45.551Z,65.37
2018-10-19T23:05:07.312Z,65.80
2018-10-19T23:07:35.828Z,67.33
2018-10-19T23:10:05.088Z,65.80
2018-10-19T23:12:33.653Z,66.20
2018-10-19T23:15:02.256Z,64.60
2018-10-19T23:17:30.864Z,64.63
2018-10-19T23:19:59.436Z,67.33
2018-10-19T23:22:28.024Z,70.97
2018-10-19T23:24:56.622Z,66.63
2018-10-19T23:27:25.213Z,68.37
2018-10-19T23:29:53.804Z,69.37
2018-10-19T23:32:22.373Z,66.70
2018-10-19T23:34:50.989Z,65.03
2018-10-19T23:37:19.556Z,64.30
2018-10-19T23:39:48.158Z,64.63
2018-10-19T23:42:16.759Z,66.83
2018-10-19T23:44:45.334Z,63.53
2018-10-19T23:47:13.990Z,67.63
2018-10-19T23:49:42.535Z,68.23
2018-10-19T23:52:11.132Z,67.40
2018-10-19T23:54:39.724Z,69.50
2018-10-19T23:57:08.334Z,65.77
2018-10-19T23:59:36.959Z,65.30
